Time;durP1;ratioP1;P1;durP2;ratioP2;P2;SDS_P1;SDS_P2;PMS_P1;PMS_P2;Temp;Humidity;BMP_temperature;BMP_pressure;BME280_temperature;BME280_humidity;BME280_pressure;Samples;Min_cycle;Max_cycle;Signal;HPM_P1;HPM_P2
2023/03/31 00:07:39;;;;;;;4.72;1.45;;;10.50;20.50;;;;;;20809803;28;20037;-41
2023/03/31 00:17:40;;;;;;;5.93;1.48;;;10.40;20.60;;;;;;20775297;28;20044;-41
2023/03/31 00:27:43;;;;;;;3.72;1.35;;;10.40;23.00;;;;;;20745689;28;20485;-42
2023/03/31 00:37:44;;;;;;;5.70;1.20;;;10.40;26.80;;;;;;20730388;28;20045;-42
2023/03/31 00:47:50;;;;;;;3.83;1.17;;;10.40;30.70;;;;;;20730555;28;20030;-41
2023/03/31 00:57:54;;;;;;;4.22;1.92;;;10.40;48.20;;;;;;20731282;28;20517;-41
2023/03/31 01:07:58;;;;;;;3.78;1.02;;;10.50;61.30;;;;;;20725901;28;20040;-41
2023/03/31 01:17:59;;;;;;;2.78;1.23;;;10.60;69.40;;;;;;20725207;28;20356;-42
2023/03/31 01:28:03;;;;;;;6.40;2.13;;;10.70;67.40;;;;;;20721787;28;20048;-42
2023/03/31 01:38:07;;;;;;;5.15;1.40;;;10.90;70.70;;;;;;20720648;28;20042;-41
2023/03/31 01:48:08;;;;;;;3.03;1.45;;;11.00;71.30;;;;;;20724409;28;20312;-41
2023/03/31 01:58:35;;;;;;;3.92;1.30;;;11.10;79.40;;;;;;20764615;28;20143;-41
2023/03/31 02:08:41;;;;;;;3.70;1.20;;;11.00;89.70;;;;;;20779038;28;20045;-42
2023/03/31 02:18:45;;;;;;;4.15;2.00;;;11.00;93.70;;;;;;20714936;28;20081;-41
2023/03/31 02:28:46;;;;;;;6.28;1.90;;;11.10;96.50;;;;;;20714943;28;20494;-41
2023/03/31 02:38:59;;;;;;;2.85;1.23;;;11.10;99.90;;;;;;20741925;28;20041;-41
2023/03/31 02:49:04;;;;;;;4.75;1.80;;;10.90;99.90;;;;;;20730273;28;20475;-41
2023/03/31 02:59:40;;;;;;;4.70;1.65;;;10.70;99.90;;;;;;20711550;28;20045;-39
2023/03/31 03:09:58;;;;;;;7.40;3.30;;;10.60;99.90;;;;;;20740655;28;20389;-39
2023/03/31 03:20:06;;;;;;;8.00;2.28;;;10.50;99.90;;;;;;20746420;28;20045;-39
2023/03/31 03:30:10;;;;;;;4.60;1.40;;;10.50;99.90;;;;;;20750196;28;20132;-40
2023/03/31 03:40:11;;;;;;;3.78;1.13;;;10.30;99.90;;;;;;20748442;28;20041;-40
2023/03/31 03:50:12;;;;;;;4.78;1.67;;;10.20;99.90;;;;;;20737494;28;20037;-39
2023/03/31 04:00:14;;;;;;;4.45;1.45;;;10.20;99.90;;;;;;20739782;28;20037;-42
2023/03/31 04:10:15;;;;;;;8.02;1.98;;;10.20;99.90;;;;;;20742816;28;20405;-39
2023/03/31 04:20:16;;;;;;;3.15;1.35;;;10.20;99.90;;;;;;20735875;28;20067;-39
2023/03/31 04:30:23;;;;;;;6.82;1.60;;;10.10;99.90;;;;;;20722056;28;20045;-39
2023/03/31 04:40:24;;;;;;;2.87;1.50;;;10.10;99.90;;;;;;20726629;28;20372;-39
2023/03/31 04:50:25;;;;;;;6.28;0.90;;;10.10;99.90;;;;;;20731820;28;20464;-39
2023/03/31 05:00:27;;;;;;;2.08;1.13;;;10.10;99.90;;;;;;20770055;28;20037;-39
2023/03/31 05:10:29;;;;;;;4.28;2.28;;;10.10;99.90;;;;;;20729442;28;20042;-40
2023/03/31 05:20:30;;;;;;;6.75;1.58;;;10.10;99.90;;;;;;20734228;28;20119;-40
2023/03/31 05:30:31;;;;;;;4.72;0.80;;;10.20;99.90;;;;;;20766415;28;20041;-40
2023/03/31 05:40:32;;;;;;;3.42;1.38;;;10.20;99.90;;;;;;20764190;28;20403;-40
2023/03/31 05:50:34;;;;;;;2.10;0.77;;;10.20;99.90;;;;;;20717224;28;20049;-39
2023/03/31 06:00:36;;;;;;;2.05;1.10;;;10.20;99.90;;;;;;20720291;28;20086;-39
2023/03/31 06:10:37;;;;;;;1.52;0.68;;;10.30;99.90;;;;;;20719440;28;20040;-39
2023/03/31 06:20:40;;;;;;;6.72;1.20;;;10.30;99.90;;;;;;20740131;28;20036;-39
2023/03/31 06:30:41;;;;;;;3.58;1.48;;;10.40;99.90;;;;;;20788320;28;20037;-39
2023/03/31 06:40:42;;;;;;;1.00;0.40;;;10.30;99.90;;;;;;20718126;28;20041;-39
2023/03/31 06:50:43;;;;;;;1.90;0.70;;;10.30;99.90;;;;;;20738605;28;20056;-39
2023/03/31 07:00:45;;;;;;;2.13;0.90;;;10.40;99.90;;;;;;20781537;28;20041;-39
2023/03/31 07:10:48;;;;;;;2.10;0.70;;;10.30;99.90;;;;;;20764293;28;20030;-39
2023/03/31 07:20:49;;;;;;;0.98;0.52;;;10.30;99.90;;;;;;20727575;28;20033;-39
2023/03/31 07:30:50;;;;;;;0.82;0.47;;;10.20;99.90;;;;;;20726798;28;20033;-39
2023/03/31 07:40:51;;;;;;;2.10;1.52;;;10.20;99.90;;;;;;20775285;28;20041;-40
2023/03/31 07:50:52;;;;;;;1.95;0.90;;;10.30;99.90;;;;;;20730964;28;20045;-39
2023/03/31 08:00:53;;;;;;;2.60;1.23;;;10.30;99.90;;;;;;20722922;28;20037;-40
2023/03/31 08:10:54;;;;;;;5.00;1.33;;;10.50;99.90;;;;;;20725142;28;20116;-40
2023/03/31 08:20:55;;;;;;;2.55;0.85;;;10.70;99.90;;;;;;20735050;28;20041;-40
2023/03/31 08:31:03;;;;;;;3.47;0.90;;;10.90;99.90;;;;;;20735717;28;20041;-40
2023/03/31 08:41:06;;;;;;;;;;;11.10;99.90;;;;;;20722979;28;20509;-40
2023/03/31 08:51:14;;;;;;;2.72;1.58;;;11.00;99.90;;;;;;20723872;28;19925;-39
2023/03/31 09:01:34;;;;;;;2.88;1.48;;;10.80;99.90;;;;;;20718195;28;20389;-40
2023/03/31 09:11:43;;;;;;;9.65;3.63;;;10.70;99.90;;;;;;20713057;28;20060;-40
2023/03/31 09:21:48;;;;;;;6.28;2.10;;;10.90;99.90;;;;;;20720673;28;20034;-40
2023/03/31 09:31:49;;;;;;;8.13;3.05;;;11.10;99.90;;;;;;20796669;28;20060;-40
2023/03/31 09:41:52;;;;;;;3.35;1.45;;;11.50;99.90;;;;;;20798762;28;20037;-41
2023/03/31 09:52:06;;;;;;;3.70;1.63;;;11.80;99.90;;;;;;20785284;28;20045;-41
2023/03/31 10:02:34;;;;;;;7.97;2.22;;;12.00;96.80;;;;;;20717901;28;20036;-42
2023/03/31 10:12:35;;;;;;;10.88;2.60;;;12.20;77.30;;;;;;20725037;28;20590;-40
2023/03/31 10:22:43;;;;;;;11.75;2.38;;;12.10;56.40;;;;;;20775329;28;20053;-41
2023/03/31 10:32:45;;;;;;;4.18;1.42;;;12.30;33.50;;;;;;20730022;28;20049;-40
2023/03/31 10:42:58;;;;;;;4.22;1.85;;;12.50;24.50;;;;;;20776471;28;20045;-40
2023/03/31 10:53:02;;;;;;;3.15;0.82;;;12.60;19.70;;;;;;20800427;28;20033;-40
2023/03/31 11:03:19;;;;;;;2.97;0.85;;;12.40;19.40;;;;;;20803860;28;20416;-41
2023/03/31 11:13:28;;;;;;;2.90;1.37;;;12.40;22.60;;;;;;20747066;28;21508;-42
2023/03/31 11:24:01;;;;;;;5.15;2.08;;;12.40;22.30;;;;;;20734861;28;20947;-39
2023/03/31 11:34:08;;;;;;;4.82;1.35;;;12.30;35.60;;;;;;20806783;28;20457;-40
2023/03/31 11:44:11;;;;;;;2.97;1.70;;;12.00;57.80;;;;;;20821584;28;20037;-40
2023/03/31 11:54:47;;;;;;;3.55;0.90;;;11.70;78.20;;;;;;20823042;28;20037;-40
2023/03/31 12:04:54;;;;;;;1.80;1.00;;;11.80;82.90;;;;;;20835201;28;20056;-39
2023/03/31 12:15:24;;;;;;;3.00;1.25;;;12.10;41.50;;;;;;20810454;28;20462;-40
2023/03/31 12:25:38;;;;;;;5.65;0.43;;;12.00;28.60;;;;;;20803039;28;20043;-40
2023/03/31 12:36:00;;;;;;;2.08;0.82;;;11.80;30.90;;;;;;20811078;28;20389;-40
2023/03/31 12:46:24;;;;;;;4.32;0.80;;;11.90;39.30;;;;;;20812526;28;20095;-41
2023/03/31 12:56:25;;;;;;;1.92;0.70;;;11.90;39.40;;;;;;20805786;28;21854;-40
2023/03/31 13:06:29;;;;;;;2.60;1.13;;;11.80;42.10;;;;;;20735203;28;20044;-40
2023/03/31 13:16:32;;;;;;;2.95;0.70;;;11.70;55.40;;;;;;20735404;28;20050;-40
2023/03/31 13:26:37;;;;;;;3.67;0.90;;;11.80;52.40;;;;;;20727824;28;20038;-40
2023/03/31 13:37:17;;;;;;;1.83;0.75;;;11.80;68.90;;;;;;20736049;28;20053;-40
2023/03/31 13:47:32;;;;;;;2.67;0.55;;;11.90;47.80;;;;;;20744683;28;21396;-40
2023/03/31 13:58:07;;;;;;;2.50;0.80;;;11.90;42.40;;;;;;20729274;28;20405;-40
2023/03/31 14:08:16;;;;;;;6.00;0.60;;;12.10;36.70;;;;;;20748560;28;20466;-40
2023/03/31 14:18:33;;;;;;;2.28;0.68;;;12.10;28.70;;;;;;20756102;28;20044;-40
2023/03/31 14:29:10;;;;;;;1.83;0.63;;;11.90;28.30;;;;;;20742878;28;20342;-40
2023/03/31 14:39:12;;;;;;;1.25;0.50;;;12.00;23.10;;;;;;20747091;28;20741;-40
2023/03/31 14:49:19;;;;;;;1.55;0.80;;;12.00;20.10;;;;;;20739751;28;20037;-40
2023/03/31 14:59:24;;;;;;;5.43;1.47;;;11.90;30.60;;;;;;20735163;28;20049;-40
2023/03/31 15:09:32;;;;;;;2.63;0.70;;;11.70;53.40;;;;;;20727672;28;20127;-40
2023/03/31 15:19:34;;;;;;;0.93;0.50;;;11.50;65.10;;;;;;20738718;28;20045;-41
2023/03/31 15:29:41;;;;;;;2.05;0.68;;;11.30;93.60;;;;;;20731215;28;20527;-40
2023/03/31 15:39:45;;;;;;;4.75;0.88;;;11.10;99.90;;;;;;20737768;28;20048;-40
2023/03/31 15:49:56;;;;;;;2.85;0.98;;;10.90;99.90;;;;;;20737379;28;20025;-40
2023/03/31 15:59:59;;;;;;;2.05;0.80;;;10.80;99.90;;;;;;20731989;28;20661;-40
2023/03/31 16:10:08;;;;;;;8.15;0.88;;;10.60;99.90;;;;;;20718874;28;20330;-40
2023/03/31 16:20:19;;;;;;;0.98;0.30;;;10.60;99.90;;;;;;20725216;28;20038;-40
2023/03/31 16:30:32;;;;;;;1.67;0.52;;;10.70;99.90;;;;;;20743870;28;20030;-41
2023/03/31 16:40:39;;;;;;;3.53;0.68;;;10.70;99.90;;;;;;20744208;28;20041;-40
2023/03/31 16:50:40;;;;;;;2.78;0.65;;;10.60;99.90;;;;;;20736638;28;20064;-40
2023/03/31 17:00:41;;;;;;;2.38;0.60;;;10.60;99.90;;;;;;20715035;28;20038;-40
2023/03/31 17:10:53;;;;;;;1.55;0.82;;;10.50;99.90;;;;;;20723088;28;20037;-41
2023/03/31 17:21:00;;;;;;;1.58;0.60;;;10.50;99.90;;;;;;20723440;28;20041;-40
2023/03/31 17:31:13;;;;;;;3.83;1.17;;;10.40;99.90;;;;;;20798620;28;21447;-40
2023/03/31 17:41:16;;;;;;;5.60;1.42;;;10.40;99.90;;;;;;20717127;28;20038;-40
2023/03/31 17:51:18;;;;;;;2.05;0.98;;;10.40;99.90;;;;;;20733407;28;20042;-41
2023/03/31 18:01:20;;;;;;;3.28;1.55;;;10.30;99.90;;;;;;20720684;28;20041;-41
2023/03/31 18:11:21;;;;;;;2.90;1.15;;;10.20;99.90;;;;;;20719178;28;20328;-41
2023/03/31 18:21:23;;;;;;;3.92;1.33;;;10.30;99.90;;;;;;20763080;28;20026;-41
2023/03/31 18:31:25;;;;;;;10.48;1.90;;;10.30;99.90;;;;;;20766738;28;20056;-41
2023/03/31 18:41:27;;;;;;;4.38;1.42;;;10.40;99.90;;;;;;20745304;28;20040;-41
2023/03/31 18:51:28;;;;;;;3.47;1.77;;;10.40;99.90;;;;;;20789288;28;20070;-41
2023/03/31 19:01:31;;;;;;;3.10;1.08;;;10.50;99.90;;;;;;20735430;28;20045;-40
2023/03/31 19:11:32;;;;;;;2.95;1.25;;;10.40;99.90;;;;;;20722260;28;20060;-41
2023/03/31 19:21:35;;;;;;;3.47;1.85;;;10.30;99.90;;;;;;20730368;28;20049;-41
2023/03/31 19:31:40;;;;;;;7.38;2.83;;;10.20;99.90;;;;;;20729489;28;20042;-40
2023/03/31 19:41:41;;;;;;;3.40;1.83;;;10.20;99.90;;;;;;20721049;28;20049;-40
2023/03/31 19:51:42;;;;;;;6.30;3.22;;;10.10;99.90;;;;;;20732678;28;20041;-40
2023/03/31 20:01:43;;;;;;;7.57;2.03;;;10.10;99.90;;;;;;20730139;28;20893;-40
2023/03/31 20:11:44;;;;;;;6.72;2.97;;;10.10;99.90;;;;;;20728797;28;20042;-40
2023/03/31 20:21:49;;;;;;;5.75;2.30;;;10.10;99.90;;;;;;20729257;28;20038;-40
2023/03/31 20:31:50;;;;;;;8.32;2.90;;;10.00;99.90;;;;;;20727946;28;20045;-40
2023/03/31 20:41:53;;;;;;;8.00;2.72;;;10.00;99.90;;;;;;20728234;28;20052;-40
2023/03/31 20:51:55;;;;;;;2.45;1.40;;;10.10;99.90;;;;;;20726484;28;20041;-40
2023/03/31 21:01:56;;;;;;;2.90;1.27;;;10.10;99.90;;;;;;20724543;28;20045;-41
2023/03/31 21:11:57;;;;;;;2.55;1.15;;;10.10;99.90;;;;;;20729720;28;20037;-41
2023/03/31 21:21:58;;;;;;;3.08;1.45;;;10.10;99.90;;;;;;20715539;28;20040;-41
2023/03/31 21:32:00;;;;;;;2.60;0.90;;;10.10;99.90;;;;;;20719378;28;20121;-41
2023/03/31 21:42:01;;;;;;;4.88;1.63;;;10.10;99.90;;;;;;20724713;28;20053;-40
2023/03/31 21:52:04;;;;;;;5.97;1.58;;;10.10;99.90;;;;;;20721432;28;20050;-40
2023/03/31 22:02:05;;;;;;;4.68;2.13;;;10.10;99.90;;;;;;20722188;28;20049;-41
2023/03/31 22:12:06;;;;;;;7.07;2.83;;;10.10;99.90;;;;;;20710351;28;20041;-41
2023/03/31 22:22:08;;;;;;;8.07;3.85;;;10.10;99.90;;;;;;20723515;28;20037;-41
2023/03/31 22:32:09;;;;;;;12.93;4.88;;;10.10;99.90;;;;;;20713574;28;20037;-41
2023/03/31 22:42:12;;;;;;;8.65;3.50;;;10.10;99.90;;;;;;20713294;28;20144;-40
2023/03/31 22:52:13;;;;;;;9.00;4.22;;;10.10;99.90;;;;;;20711908;28;20228;-40
2023/03/31 23:02:14;;;;;;;11.85;4.88;;;10.10;99.90;;;;;;20711035;28;20026;-40
2023/03/31 23:12:15;;;;;;;12.18;3.70;;;10.00;99.90;;;;;;20709733;28;20052;-40
2023/03/31 23:22:17;;;;;;;10.85;5.03;;;10.00;99.90;;;;;;20710241;28;20084;-40
2023/03/31 23:32:18;;;;;;;15.07;5.10;;;10.00;99.90;;;;;;20718173;28;20045;-40
2023/03/31 23:42:19;;;;;;;7.60;3.83;;;10.00;99.90;;;;;;20739555;28;20054;-40
2023/03/31 23:52:20;;;;;;;8.82;4.50;;;10.00;99.90;;;;;;20723423;28;20453;-41
